Terminal Aerodrome Forecast
Issued by NWS

Home | Current Version | Previous Version | Text Only | Print | Product List | Glossary On
Versions: 1 2 3 4 5 6 7 8 9 10 11 12 13 14 15
000
FTUS43 KSGF 261100
TAFJLN
TAF
KJLN 261120Z 2612/2712 35018G24KT P6SM OVC025
     FM261500 35015G20KT P6SM OVC025
     FM261900 34013G18KT P6SM BKN050
     FM270000 36008KT P6SM SCT250=

USA.gov is the U.S. government's official web portal to all federal, state and local government web resources and services.